createdAt,value
2023-03-28T00:00:01.777Z,97690.19
2023-03-28T00:02:41.000Z,97685.03
2023-03-28T00:05:09.460Z,97682.63
2023-03-28T00:07:37.362Z,97691.13
2023-03-28T00:10:06.183Z,97685.94
2023-03-28T00:12:33.912Z,97691.69
2023-03-28T00:15:04.296Z,97682.13
2023-03-28T00:17:32.158Z,97679.03
2023-03-28T00:20:02.777Z,97679.88
2023-03-28T00:22:31.267Z,97689.16
2023-03-28T00:24:59.502Z,97691.50
2023-03-28T00:27:27.284Z,97691.06
2023-03-28T00:29:54.935Z,97691.97
2023-03-28T00:32:22.783Z,97693.66
2023-03-28T00:34:51.116Z,97678.84
2023-03-28T00:37:21.124Z,97680.44
2023-03-28T00:39:50.782Z,97688.25
2023-03-28T00:42:18.634Z,97690.13
2023-03-28T00:44:48.643Z,97692.97
2023-03-28T00:47:31.624Z,97686.16
2023-03-28T00:50:02.702Z,97687.22
2023-03-28T00:52:32.795Z,97682.84
2023-03-28T00:55:00.721Z,97682.84
2023-03-28T00:57:28.949Z,97672.53
2023-03-28T00:59:56.652Z,97669.63
2023-03-28T01:02:24.461Z,97652.97
2023-03-28T01:04:57.775Z,97651.75
2023-03-28T01:07:25.549Z,97661.56
2023-03-28T01:09:54.802Z,97669.47
2023-03-28T01:12:23.110Z,97664.28
2023-03-28T01:14:51.010Z,97665.06
2023-03-28T01:17:19.834Z,97663.34
2023-03-28T01:19:59.058Z,97666.00
2023-03-28T01:22:59.376Z,97667.31
2023-03-28T01:25:51.470Z,97667.47
2023-03-28T01:28:26.698Z,97664.50
2023-03-28T01:31:10.286Z,97670.28
2023-03-28T01:33:57.507Z,97665.78
2023-03-28T01:36:48.200Z,97674.63
2023-03-28T01:39:18.523Z,97679.16
2023-03-28T01:41:48.930Z,97664.28
2023-03-28T01:44:20.118Z,97670.88
2023-03-28T01:46:51.760Z,97671.38
2023-03-28T01:49:22.523Z,97671.13
2023-03-28T01:51:54.678Z,97664.25
2023-03-28T01:54:29.066Z,97676.81
2023-03-28T01:57:01.379Z,97675.63
2023-03-28T01:59:35.065Z,97673.72
2023-03-28T02:02:23.485Z,97665.22
2023-03-28T02:04:52.053Z,97673.72
2023-03-28T02:07:27.126Z,97664.16
2023-03-28T02:10:11.069Z,97667.34
2023-03-28T02:13:04.562Z,97675.03
2023-03-28T02:15:49.076Z,97665.88
2023-03-28T02:18:29.602Z,97681.34
2023-03-28T02:21:18.614Z,97679.16
2023-03-28T02:24:09.792Z,97686.06
2023-03-28T02:26:56.311Z,97679.38
2023-03-28T02:29:50.282Z,97688.56
2023-03-28T02:32:34.092Z,97678.53
2023-03-28T02:35:02.401Z,97683.34
2023-03-28T02:37:33.960Z,97671.72
2023-03-28T02:40:12.163Z,97676.53
2023-03-28T02:42:50.795Z,97671.81
2023-03-28T02:45:28.166Z,97672.28
2023-03-28T02:48:01.256Z,97678.22
2023-03-28T02:50:34.690Z,97674.06
2023-03-28T02:53:03.952Z,97683.41
2023-03-28T02:55:34.594Z,97682.44
2023-03-28T02:58:14.838Z,97680.28
2023-03-28T03:00:42.918Z,97682.53
2023-03-28T03:03:11.537Z,97687.75
2023-03-28T03:05:39.442Z,97682.56
2023-03-28T03:08:07.864Z,97678.31
2023-03-28T03:10:37.984Z,97681.00
2023-03-28T03:13:05.707Z,97677.94
2023-03-28T03:15:35.654Z,97685.69
2023-03-28T03:18:24.284Z,97696.88
2023-03-28T03:20:53.234Z,97701.50
2023-03-28T03:23:21.908Z,97694.19
2023-03-28T03:25:55.252Z,97689.97
2023-03-28T03:28:27.904Z,97694.78
2023-03-28T03:30:55.670Z,97700.56
2023-03-28T03:33:53.418Z,97693.28
2023-03-28T03:36:27.211Z,97704.09
2023-03-28T03:38:55.097Z,97701.75
2023-03-28T03:41:25.661Z,97701.06
2023-03-28T03:43:53.409Z,97713.09
2023-03-28T03:46:21.310Z,97703.63
2023-03-28T03:48:50.773Z,97720.81
2023-03-28T03:51:19.309Z,97708.38
2023-03-28T03:53:50.791Z,97716.25
2023-03-28T03:56:21.228Z,97714.25
2023-03-28T03:58:55.661Z,97713.63
2023-03-28T04:01:30.151Z,97721.66
2023-03-28T04:04:07.285Z,97718.97
2023-03-28T04:06:51.034Z,97731.97
2023-03-28T04:09:20.575Z,97719.44
2023-03-28T04:11:57.371Z,97724.53
2023-03-28T04:14:26.537Z,97730.66
2023-03-28T04:17:13.721Z,97733.59
2023-03-28T04:19:41.554Z,97744.88
2023-03-28T04:22:12.813Z,97743.44
2023-03-28T04:24:45.836Z,97738.16
2023-03-28T04:27:21.159Z,97744.16
2023-03-28T04:29:53.833Z,97742.50
2023-03-28T04:32:41.700Z,97767.81
2023-03-28T04:35:16.481Z,97758.00
2023-03-28T04:37:47.473Z,97770.81
2023-03-28T04:40:17.749Z,97769.34
2023-03-28T04:42:58.231Z,97772.03
2023-03-28T04:45:34.572Z,97773.72
2023-03-28T04:48:12.813Z,97776.78
2023-03-28T04:50:40.518Z,97764.69
2023-03-28T04:53:08.272Z,97783.47
2023-03-28T04:55:38.932Z,97784.66
2023-03-28T04:58:19.745Z,97785.06
2023-03-28T05:00:49.755Z,97787.06
2023-03-28T05:03:39.963Z,97795.72
2023-03-28T05:06:08.379Z,97793.50
2023-03-28T05:08:36.076Z,97790.78
2023-03-28T05:11:03.886Z,97792.91
2023-03-28T05:13:31.604Z,97796.22
2023-03-28T05:16:29.811Z,97801.72
2023-03-28T05:19:18.103Z,97807.94
2023-03-28T05:22:06.140Z,97814.56
2023-03-28T05:24:37.013Z,97825.38
2023-03-28T05:27:11.433Z,97829.00
2023-03-28T05:29:39.461Z,97840.34
2023-03-28T05:32:09.284Z,97838.59
2023-03-28T05:34:37.099Z,97837.38
2023-03-28T05:37:05.243Z,97841.09
2023-03-28T05:39:43.642Z,97835.34
2023-03-28T05:42:11.459Z,97841.34
2023-03-28T05:44:41.011Z,97847.09
2023-03-28T05:47:30.163Z,97851.84
2023-03-28T05:49:59.051Z,97845.22
2023-03-28T05:52:26.774Z,97851.66
2023-03-28T05:54:56.163Z,97854.50
2023-03-28T05:57:24.229Z,97861.22
2023-03-28T05:59:53.851Z,97853.22
2023-03-28T06:02:23.623Z,97859.09
2023-03-28T06:04:58.581Z,97856.97
2023-03-28T06:07:39.282Z,97866.00
2023-03-28T06:10:12.302Z,97861.03
2023-03-28T06:12:40.754Z,97858.50
2023-03-28T06:15:09.197Z,97866.25
2023-03-28T06:17:42.551Z,97872.84
2023-03-28T06:20:12.456Z,97876.53
2023-03-28T06:22:40.287Z,97887.66
2023-03-28T06:25:11.474Z,97885.25
2023-03-28T06:27:39.393Z,97897.63
2023-03-28T06:30:09.339Z,97892.47
2023-03-28T06:32:44.367Z,97899.84
2023-03-28T06:35:16.680Z,97909.34
2023-03-28T06:37:44.519Z,97910.50
2023-03-28T06:40:14.346Z,97923.59
2023-03-28T06:42:43.246Z,97935.50
2023-03-28T06:45:20.649Z,97932.09
2023-03-28T06:48:02.600Z,97949.72
2023-03-28T06:50:51.713Z,97952.84
2023-03-28T06:53:21.927Z,97948.81
2023-03-28T06:55:50.482Z,97956.38
2023-03-28T06:58:18.221Z,97951.25
2023-03-28T07:00:52.800Z,97948.88
2023-03-28T07:03:47.372Z,97953.47
2023-03-28T07:06:22.228Z,97955.34
2023-03-28T07:08:50.160Z,97967.31
2023-03-28T07:11:21.624Z,97971.03
2023-03-28T07:13:51.417Z,97973.09
2023-03-28T07:16:21.073Z,97966.56
2023-03-28T07:18:50.148Z,97972.00
2023-03-28T07:21:26.510Z,97976.63
2023-03-28T07:23:57.892Z,97980.28
2023-03-28T07:26:29.926Z,97972.00
2023-03-28T07:28:57.855Z,97976.44
2023-03-28T07:31:27.841Z,97982.59
2023-03-28T07:33:59.184Z,97979.22
2023-03-28T07:36:28.974Z,97976.69
2023-03-28T07:39:03.219Z,97996.25
2023-03-28T07:41:31.450Z,97999.56
2023-03-28T07:44:00.288Z,98004.94
2023-03-28T07:46:28.241Z,98011.81
2023-03-28T07:48:57.545Z,98007.59
2023-03-28T07:51:26.328Z,98042.22
2023-03-28T07:53:55.432Z,98034.72
2023-03-28T07:56:23.784Z,98035.88
2023-03-28T07:59:01.935Z,98044.44
2023-03-28T08:01:30.066Z,98054.03
2023-03-28T08:04:02.034Z,98053.28
2023-03-28T08:06:48.501Z,98064.97
2023-03-28T08:09:17.951Z,98062.72
2023-03-28T08:11:48.804Z,98073.97
2023-03-28T08:14:17.540Z,98087.09
2023-03-28T08:16:45.835Z,98080.94
2023-03-28T08:19:13.584Z,98090.31
2023-03-28T08:22:02.631Z,98094.81
2023-03-28T08:24:36.419Z,98089.81
2023-03-28T08:27:24.226Z,98108.31
2023-03-28T08:29:57.908Z,98129.28
2023-03-28T08:32:28.108Z,98135.28
2023-03-28T08:34:57.872Z,98146.84
2023-03-28T08:37:27.946Z,98136.97
2023-03-28T08:39:59.019Z,98127.25
2023-03-28T08:42:50.744Z,98130.97
2023-03-28T08:45:41.833Z,98148.78
2023-03-28T08:48:16.757Z,98147.56
2023-03-28T08:50:45.642Z,98136.94
2023-03-28T08:53:18.658Z,98146.84
2023-03-28T08:55:47.855Z,98149.41
2023-03-28T08:58:21.233Z,98152.63
2023-03-28T09:00:49.221Z,98146.72
2023-03-28T09:03:18.262Z,98149.59
2023-03-28T09:05:48.538Z,98159.28
2023-03-28T09:08:29.078Z,98160.97
2023-03-28T09:11:01.385Z,98164.78
2023-03-28T09:13:34.214Z,98161.00
2023-03-28T09:16:27.497Z,98169.34
2023-03-28T09:19:15.507Z,98187.91
2023-03-28T09:21:59.545Z,98191.88
2023-03-28T09:24:42.706Z,98189.53
2023-03-28T09:27:18.271Z,98190.25
2023-03-28T09:29:47.242Z,98195.22
2023-03-28T09:32:20.434Z,98194.97
2023-03-28T09:34:51.095Z,98190.25
2023-03-28T09:37:29.654Z,98182.25
2023-03-28T09:39:58.497Z,98186.50
2023-03-28T09:42:38.251Z,98184.97
2023-03-28T09:45:42.090Z,98192.66
2023-03-28T09:48:29.988Z,98206.97
2023-03-28T09:51:01.740Z,98207.44
2023-03-28T09:53:32.913Z,98205.41
2023-03-28T09:56:04.793Z,98202.75
2023-03-28T09:58:52.306Z,98201.09
2023-03-28T10:01:37.166Z,98181.06
2023-03-28T10:04:33.212Z,98184.25
2023-03-28T10:07:32.358Z,98182.91
2023-03-28T10:10:29.759Z,98191.31
2023-03-28T10:13:10.786Z,98198.31
2023-03-28T10:15:43.459Z,98186.06
2023-03-28T10:18:31.210Z,98187.75
2023-03-28T10:21:26.418Z,98190.97
2023-03-28T10:24:15.613Z,98200.47
2023-03-28T10:26:48.405Z,98200.38
2023-03-28T10:29:16.506Z,98198.34
2023-03-28T10:31:49.446Z,98209.94
2023-03-28T10:34:27.263Z,98215.03
2023-03-28T10:37:26.154Z,98215.50
2023-03-28T10:40:24.950Z,98204.94
2023-03-28T10:43:14.746Z,98200.00
2023-03-28T10:46:01.280Z,98189.59
2023-03-28T10:48:52.261Z,98209.31
2023-03-28T10:51:22.179Z,98209.34
2023-03-28T10:54:11.151Z,98211.94
2023-03-28T10:56:41.484Z,98216.34
2023-03-28T10:59:21.777Z,98187.19
2023-03-28T11:02:04.382Z,98163.53
2023-03-28T11:04:42.815Z,98167.34
2023-03-28T11:07:12.470Z,98170.19
2023-03-28T11:10:03.741Z,98174.38
2023-03-28T11:12:59.311Z,98174.16
2023-03-28T11:15:35.285Z,98184.06
2023-03-28T11:18:20.534Z,98182.88
2023-03-28T11:20:51.807Z,98193.63
2023-03-28T11:23:44.658Z,98203.09
2023-03-28T11:26:44.865Z,98186.94
2023-03-28T11:29:44.046Z,98164.72
2023-03-28T11:32:18.860Z,98153.03
2023-03-28T11:34:50.272Z,98147.47
2023-03-28T11:37:20.090Z,98140.06
2023-03-28T11:39:50.857Z,98142.44
2023-03-28T11:42:29.970Z,98139.22
2023-03-28T11:45:02.255Z,98137.25
2023-03-28T11:47:31.765Z,98144.34
2023-03-28T11:50:09.116Z,98160.31
2023-03-28T11:52:59.086Z,98157.13
2023-03-28T11:55:30.434Z,98151.53
2023-03-28T11:58:02.646Z,98161.38
2023-03-28T12:00:34.330Z,98175.81
2023-03-28T12:03:13.491Z,98175.34
2023-03-28T12:05:49.160Z,98159.94
2023-03-28T12:08:20.616Z,98133.97
2023-03-28T12:10:50.497Z,98122.16
2023-03-28T12:13:30.467Z,98123.06
2023-03-28T12:16:08.182Z,98117.94
2023-03-28T12:18:38.199Z,98122.00
2023-03-28T12:21:11.082Z,98145.50
2023-03-28T12:23:53.515Z,98143.81
2023-03-28T12:26:30.356Z,98150.84
2023-03-28T12:29:01.764Z,98148.94
2023-03-28T12:31:31.097Z,98165.84
2023-03-28T12:34:12.209Z,98167.53
2023-03-28T12:37:04.338Z,98162.75
2023-03-28T12:39:36.852Z,98163.94
2023-03-28T12:42:13.973Z,98168.53
2023-03-28T12:44:43.372Z,98185.47
2023-03-28T12:47:13.145Z,98174.19
2023-03-28T12:49:42.408Z,98186.28
2023-03-28T12:52:14.020Z,98180.91
2023-03-28T12:54:58.994Z,98171.59
2023-03-28T12:57:43.545Z,98186.41
2023-03-28T13:00:26.203Z,98186.91
2023-03-28T13:03:18.386Z,98184.00
2023-03-28T13:05:48.793Z,98187.03
2023-03-28T13:08:18.150Z,98200.16
2023-03-28T13:10:48.629Z,98200.63
2023-03-28T13:13:24.944Z,98201.34
2023-03-28T13:16:02.165Z,98211.75
2023-03-28T13:18:32.480Z,98211.97
2023-03-28T13:21:01.142Z,98211.81
2023-03-28T13:23:34.738Z,98210.22
2023-03-28T13:26:04.513Z,98210.16
2023-03-28T13:28:34.519Z,98197.44
2023-03-28T13:31:10.109Z,98206.91
2023-03-28T13:33:39.124Z,98205.31
2023-03-28T13:36:14.801Z,98208.97
2023-03-28T13:38:46.895Z,98203.03
2023-03-28T13:41:33.931Z,98196.44
2023-03-28T13:44:01.879Z,98202.94
2023-03-28T13:46:31.827Z,98195.03
2023-03-28T13:49:02.908Z,98202.84
2023-03-28T13:51:31.568Z,98196.09
2023-03-28T13:53:59.271Z,98198.91
2023-03-28T13:56:29.356Z,98192.75
2023-03-28T13:58:59.095Z,98195.66
2023-03-28T14:01:27.524Z,98192.84
2023-03-28T14:03:58.610Z,98190.44
2023-03-28T14:06:27.862Z,98196.63
2023-03-28T14:08:57.748Z,98204.50
2023-03-28T14:11:30.519Z,98199.59
2023-03-28T14:14:08.852Z,98197.47
2023-03-28T14:16:37.534Z,98193.88
2023-03-28T14:19:05.612Z,98187.97
2023-03-28T14:21:33.765Z,98193.88
2023-03-28T14:24:02.203Z,98184.41
2023-03-28T14:26:31.767Z,98182.56
2023-03-28T14:29:01.158Z,98180.97
2023-03-28T14:31:31.935Z,98181.53
2023-03-28T14:33:59.948Z,98183.94
2023-03-28T14:36:31.099Z,98179.41
2023-03-28T14:39:13.273Z,98176.72
2023-03-28T14:41:41.729Z,98177.53
2023-03-28T14:44:09.467Z,98186.91
2023-03-28T14:46:38.724Z,98182.81
2023-03-28T14:49:10.261Z,98183.38
2023-03-28T14:51:42.253Z,98174.09
2023-03-28T14:54:14.369Z,98179.22
2023-03-28T14:56:42.259Z,98172.44
2023-03-28T14:59:10.889Z,98161.38
2023-03-28T15:01:40.056Z,98176.25
2023-03-28T15:04:08.205Z,98166.34
2023-03-28T15:06:36.526Z,98176.00
2023-03-28T15:09:11.164Z,98171.91
2023-03-28T15:11:41.277Z,98173.13
2023-03-28T15:14:14.257Z,98179.16
2023-03-28T15:16:43.935Z,98173.38
2023-03-28T15:19:18.585Z,98182.69
2023-03-28T15:21:50.937Z,98179.13
2023-03-28T15:24:18.771Z,98179.88
2023-03-28T15:26:47.634Z,98167.84
2023-03-28T15:29:16.769Z,98168.97
2023-03-28T15:31:46.001Z,98162.78
2023-03-28T15:34:19.615Z,98165.91
2023-03-28T15:36:52.788Z,98165.56
2023-03-28T15:39:24.252Z,98169.09
2023-03-28T15:41:54.391Z,98171.22
2023-03-28T15:44:27.660Z,98172.13
2023-03-28T15:46:57.262Z,98167.72
2023-03-28T15:49:25.074Z,98158.09
2023-03-28T15:51:54.576Z,98166.09
2023-03-28T15:54:30.733Z,98166.84
2023-03-28T15:57:00.808Z,98167.06
2023-03-28T15:59:32.084Z,98166.75
2023-03-28T16:02:29.649Z,98164.06
2023-03-28T16:05:01.957Z,98160.41
2023-03-28T16:07:33.985Z,98155.28
2023-03-28T16:10:01.743Z,98161.19
2023-03-28T16:12:29.848Z,98149.91
2023-03-28T16:15:29.326Z,98153.97
2023-03-28T16:18:17.914Z,98158.94
2023-03-28T16:20:50.632Z,98153.38
2023-03-28T16:23:18.400Z,98159.47
2023-03-28T16:25:46.436Z,98156.22
2023-03-28T16:28:17.131Z,98145.00
2023-03-28T16:30:45.285Z,98143.25
2023-03-28T16:33:13.532Z,98151.59
2023-03-28T16:35:42.778Z,98148.06
2023-03-28T16:38:11.696Z,98156.88
2023-03-28T16:40:39.558Z,98159.97
2023-03-28T16:43:07.988Z,98151.34
2023-03-28T16:45:35.927Z,98143.72
2023-03-28T16:48:03.758Z,98148.06
2023-03-28T16:50:31.516Z,98146.69
2023-03-28T16:53:02.244Z,98146.56
2023-03-28T16:55:30.021Z,98145.53
2023-03-28T16:58:06.755Z,98141.78
2023-03-28T17:00:43.966Z,98141.78
2023-03-28T17:03:11.870Z,98141.53
2023-03-28T17:05:39.883Z,98143.94
2023-03-28T17:08:09.105Z,98143.72
2023-03-28T17:10:39.417Z,98132.72
2023-03-28T17:13:07.731Z,98138.59
2023-03-28T17:15:35.459Z,98143.41
2023-03-28T17:18:05.764Z,98130.69
2023-03-28T17:20:33.643Z,98134.34
2023-03-28T17:23:01.426Z,98133.69
2023-03-28T17:25:31.013Z,98132.81
2023-03-28T17:28:02.142Z,98120.88
2023-03-28T17:30:30.018Z,98096.31
2023-03-28T17:32:57.836Z,98089.59
2023-03-28T17:35:25.711Z,98078.50
2023-03-28T17:37:53.591Z,98061.25
2023-03-28T17:40:21.678Z,98063.53
2023-03-28T17:42:50.909Z,98058.06
2023-03-28T17:45:18.870Z,98059.84
2023-03-28T17:47:46.870Z,98045.59
2023-03-28T17:50:14.726Z,98052.94
2023-03-28T17:52:42.573Z,98059.38
2023-03-28T17:55:10.748Z,98060.72
2023-03-28T17:57:38.475Z,98050.47
2023-03-28T18:00:09.717Z,98038.03
2023-03-28T18:02:45.888Z,98034.59
2023-03-28T18:05:31.416Z,98030.84
2023-03-28T18:07:59.398Z,98025.25
2023-03-28T18:10:27.201Z,98011.00
2023-03-28T18:12:55.006Z,98019.38
2023-03-28T18:15:24.118Z,98027.06
2023-03-28T18:17:52.031Z,98025.06
2023-03-28T18:20:20.835Z,98018.50
2023-03-28T18:22:49.676Z,98011.63
2023-03-28T18:25:17.663Z,98016.56
2023-03-28T18:27:45.844Z,98012.34
2023-03-28T18:30:14.857Z,98018.25
2023-03-28T18:32:44.159Z,98022.72
2023-03-28T18:35:12.810Z,98017.28
2023-03-28T18:37:40.614Z,98014.75
2023-03-28T18:40:11.102Z,98015.09
2023-03-28T18:42:38.902Z,98021.81
2023-03-28T18:45:07.676Z,98025.06
2023-03-28T18:47:37.922Z,98013.84
2023-03-28T18:50:08.273Z,98001.22
2023-03-28T18:52:36.043Z,97986.34
2023-03-28T18:55:05.144Z,97987.25
2023-03-28T18:57:33.082Z,97980.13
2023-03-28T19:00:01.071Z,97976.84
2023-03-28T19:02:29.700Z,97977.47
2023-03-28T19:04:57.483Z,97974.06
2023-03-28T19:07:26.840Z,97976.81
2023-03-28T19:09:54.760Z,97989.53
2023-03-28T19:12:22.543Z,97991.72
2023-03-28T19:14:50.483Z,97991.53
2023-03-28T19:17:18.380Z,97991.50
2023-03-28T19:19:46.315Z,97994.81
2023-03-28T19:22:14.172Z,97999.69
2023-03-28T19:24:43.448Z,97991.19
2023-03-28T19:27:11.330Z,97987.34
2023-03-28T19:29:39.080Z,97983.53
2023-03-28T19:32:06.891Z,97976.59
2023-03-28T19:34:35.270Z,97983.03
2023-03-28T19:37:03.028Z,97968.47
2023-03-28T19:39:30.759Z,97967.25
2023-03-28T19:42:00.129Z,97959.19
2023-03-28T19:44:27.812Z,97956.09
2023-03-28T19:46:55.715Z,97948.59
2023-03-28T19:49:23.494Z,97953.41
2023-03-28T19:51:52.940Z,97944.19
2023-03-28T19:54:20.821Z,97939.78
2023-03-28T19:56:48.870Z,97938.00
2023-03-28T19:59:17.990Z,97935.97
2023-03-28T20:01:45.914Z,97930.69
2023-03-28T20:04:14.424Z,97931.50
2023-03-28T20:06:42.143Z,97923.56
2023-03-28T20:09:09.891Z,97904.84
2023-03-28T20:11:42.069Z,97899.75
2023-03-28T20:14:09.807Z,97892.97
2023-03-28T20:16:38.980Z,97896.47
2023-03-28T20:19:06.850Z,97891.69
2023-03-28T20:21:35.258Z,97891.88
2023-03-28T20:24:03.898Z,97887.28
2023-03-28T20:26:33.109Z,97886.25
2023-03-28T20:29:01.479Z,97884.13
2023-03-28T20:31:29.717Z,97887.16
2023-03-28T20:33:58.847Z,97899.34
2023-03-28T20:36:27.343Z,97901.69
2023-03-28T20:38:55.814Z,97905.44
2023-03-28T20:41:24.279Z,97897.69
2023-03-28T20:43:53.174Z,97897.16
2023-03-28T20:46:21.206Z,97896.91
2023-03-28T20:48:52.195Z,97892.25
2023-03-28T20:51:22.768Z,97887.13
2023-03-28T20:53:51.738Z,97882.03
2023-03-28T20:56:20.006Z,97881.56
2023-03-28T20:58:47.942Z,97873.72
2023-03-28T21:01:16.628Z,97865.22
2023-03-28T21:03:51.120Z,97858.44
2023-03-28T21:06:20.508Z,97851.03
2023-03-28T21:08:51.039Z,97846.03
2023-03-28T21:11:20.126Z,97845.72
2023-03-28T21:13:47.831Z,97841.56
2023-03-28T21:16:16.804Z,97836.34
2023-03-28T21:18:44.963Z,97838.28
2023-03-28T21:21:39.953Z,97833.94
2023-03-28T21:24:03.979Z,97836.22
2023-03-28T21:26:31.970Z,97832.59
2023-03-28T21:28:59.779Z,97827.47
2023-03-28T21:31:28.555Z,97837.69
2023-03-28T21:33:57.185Z,97842.19
2023-03-28T21:36:25.307Z,97844.16
2023-03-28T21:38:53.152Z,97843.81
2023-03-28T21:41:22.806Z,97843.16
2023-03-28T21:43:50.651Z,97839.28
2023-03-28T21:46:19.626Z,97828.28
2023-03-28T21:48:48.310Z,97825.13
2023-03-28T21:51:16.598Z,97819.19
2023-03-28T21:53:44.306Z,97816.53
2023-03-28T21:56:14.286Z,97806.50
2023-03-28T21:58:43.939Z,97801.34
2023-03-28T22:01:12.810Z,97789.22
2023-03-28T22:03:40.669Z,97792.00
2023-03-28T22:06:09.363Z,97783.69
2023-03-28T22:08:37.128Z,97789.38
2023-03-28T22:11:11.284Z,97782.78
2023-03-28T22:13:39.248Z,97778.56
2023-03-28T22:16:12.827Z,97777.41
2023-03-28T22:18:41.336Z,97783.75
2023-03-28T22:21:14.022Z,97776.19
2023-03-28T22:23:43.509Z,97783.63
2023-03-28T22:26:12.603Z,97781.50
2023-03-28T22:28:40.314Z,97778.50
2023-03-28T22:31:09.575Z,97776.41
2023-03-28T22:33:38.166Z,97767.94
2023-03-28T22:36:07.262Z,97771.25
2023-03-28T22:38:35.076Z,97770.41
2023-03-28T22:41:03.147Z,97772.28
2023-03-28T22:43:32.003Z,97771.00
2023-03-28T22:45:59.763Z,97766.66
2023-03-28T22:48:31.365Z,97763.50
2023-03-28T22:51:00.689Z,97766.31
2023-03-28T22:53:28.746Z,97767.31
2023-03-28T22:55:56.756Z,97755.53
2023-03-28T22:58:24.601Z,97758.81
2023-03-28T23:00:52.922Z,97754.34
2023-03-28T23:03:20.638Z,97750.09
2023-03-28T23:05:51.570Z,97752.13
2023-03-28T23:08:19.470Z,97752.94
2023-03-28T23:10:47.601Z,97753.69
2023-03-28T23:13:15.429Z,97755.22
2023-03-28T23:15:43.679Z,97756.06
2023-03-28T23:18:12.129Z,97758.91
2023-03-28T23:20:39.855Z,97765.16
2023-03-28T23:23:09.763Z,97771.19
2023-03-28T23:25:39.071Z,97767.47
2023-03-28T23:28:06.832Z,97767.84
2023-03-28T23:30:34.585Z,97764.72
2023-03-28T23:33:02.329Z,97776.22
2023-03-28T23:35:30.069Z,97769.47
2023-03-28T23:37:57.827Z,97765.09
2023-03-28T23:40:27.129Z,97759.75
2023-03-28T23:42:54.914Z,97764.81
2023-03-28T23:45:23.162Z,97752.59
2023-03-28T23:47:51.147Z,97755.53
2023-03-28T23:50:19.127Z,97756.34
2023-03-28T23:52:46.879Z,97754.41
2023-03-28T23:55:15.312Z,97744.66
2023-03-28T23:57:44.387Z,97746.78
